Latest Weather Observations for Mackay Airport

IDQ60801

Issued at 4:02 pm EST Wednesday 22 February 2017 (issued every 30 minutes, with the page automatically refreshed every 10 minutes)

About weather observations | Map of weather stations | Latest weather observations for QLD | Other Formats
Station Details ID: 033045 Name: MACKAY AERO Lat: -21.17 Lon: 149.18 Height: 4.7 m
Data from the previous 72 hours. | See also: Recent months at Mackay Airport
Date/Time
EST
Temp
°C
App
Temp
°C
Dew
Point
°C
Rel
Hum
%
Delta-T
°C
Wind Press
QNH
hPa
Press
MSL
hPa
Rain since
9am
mm
Dir  Spd
km/h
Gust
km/h
Spd
kts
Gust
kts
22/03:30pm 30.0 29.4 23.7 69 4.4 ESE 33 43 18 23 1012.3 1012.3 0.2
22/03:00pm 30.3 30.3 23.7 68 4.6 SE 30 35 16 19 1012.4 1012.4 0.2
22/02:30pm 30.3 30.4 24.0 69 4.4 ESE 30 37 16 20 1012.4 1012.4 0.2
22/02:00pm 30.5 29.9 23.4 66 4.9 SE 32 39 17 21 1012.5 1012.5 0.2
22/01:30pm 30.3 29.9 23.7 68 4.6 SE 32 39 17 21 1012.8 1012.8 0.2
22/01:00pm 31.0 30.7 24.9 70 4.3 ESE 35 44 19 24 1013.1 1013.1 0.2
22/12:30pm 30.8 31.9 25.6 74 3.7 SE 30 39 16 21 1013.3 1013.3 0.2
22/12:00pm 30.3 30.7 24.4 70 4.1 SE 30 37 16 20 1013.6 1013.6 0.2
22/11:30am 30.0 30.0 23.7 69 4.4 SE 30 37 16 20 1013.8 1013.8 0.2
22/11:00am 30.1 30.7 24.7 73 3.8 SE 30 41 16 22 1014.2 1014.2 0.0
22/10:30am 29.4 30.9 24.9 77 3.2 SE 26 33 14 18 1014.6 1014.6 0.0
22/10:00am 28.9 29.9 24.2 76 3.3 SSE 26 32 14 17 1014.7 1014.7 0.0
22/09:30am 29.1 30.6 24.9 78 2.9 SSE 26 32 14 17 1014.8 1014.8 0.0
22/09:00am 28.5 29.4 23.9 76 3.2 SSE 26 35 14 19 1014.7 1014.7 0.8
22/08:30am 27.3 27.8 24.0 82 2.3 SSE 28 35 15 19 1014.6 1014.6 0.8
22/08:00am 27.8 30.8 24.6 83 2.2 S 17 24 9 13 1014.3 1014.3 0.8
22/07:30am 26.8 30.2 24.6 88 1.5 SSW 15 19 8 10 1014.1 1014.1 0.8
22/07:00am 25.4 29.3 24.2 93 0.8 SW 11 15 6 8 1013.9 1013.9 0.8
22/06:30am 24.9 28.6 23.9 94 0.7 SSW 11 15 6 8 1013.8 1013.8 0.8
22/06:21am 24.9 29.0 24.0 95 0.6 WSW 9 11 5 6 1013.9 1013.9 0.8
22/06:03am 24.7 28.0 23.8 95 0.6 SW 13 15 7 8 1013.7 1013.7 0.8
22/06:00am 24.7 28.0 23.8 95 0.6 SW 13 15 7 8 1013.7 1013.7 0.0
22/05:30am 24.7 28.7 23.8 95 0.6 SW 9 11 5 6 1013.5 1013.5 0.0
22/05:00am 25.0 28.8 24.0 94 0.7 WSW 11 15 6 8 1013.3 1013.3 0.0
22/04:30am 25.1 29.2 23.9 93 0.8 WSW 9 11 5 6 1012.9 1012.9 0.0
22/04:00am 25.2 29.9 24.0 93 0.8 W 6 11 3 6 1012.8 1012.8 0.0
22/03:30am 25.2 29.5 23.6 91 1.1 WSW 7 11 4 6 1012.7 1012.7 0.0
22/03:00am 25.4 29.7 23.6 90 1.2 WNW 7 11 4 6 1012.8 1012.8 0.0
22/02:30am 27.1 30.2 23.6 81 2.4 ENE 13 19 7 10 1012.7 1012.7 0.0
22/02:00am 27.2 31.0 24.1 83 2.1 ESE 11 15 6 8 1012.9 1012.9 0.0
22/01:30am 27.9 31.3 24.1 80 2.6 ENE 13 15 7 8 1013.3 1013.3 0.0
22/01:00am 28.1 30.7 23.9 78 2.9 ENE 17 24 9 13 1013.4 1013.4 0.0
22/12:30am 27.8 30.6 23.6 78 2.9 E 15 20 8 11 1013.7 1013.7 0.0
22/12:00am 28.3 30.3 23.9 77 3.0 E 20 24 11 13 1013.7 1013.7 0.0
 
Date/Time
EST
Temp
°C
App
Temp
°C
Dew
Point
°C
Rel
Hum
%
Delta-T
°C
Wind Press
QNH
hPa
Press
MSL
hPa
Rain since
9am
mm
Dir  Spd
km/h
Gust
km/h
Spd
kts
Gust
kts
21/11:30pm 28.2 30.9 24.2 79 2.8 E 17 22 9 12 1013.6 1013.6 0.0
21/11:00pm 28.1 30.1 23.9 78 2.9 E 20 26 11 14 1013.8 1013.8 0.0
21/10:30pm 28.1 31.2 24.1 79 2.8 E 15 20 8 11 1013.8 1013.8 0.0
21/10:00pm 28.2 30.2 23.6 76 3.2 E 19 24 10 13 1013.8 1013.8 0.0
21/09:30pm 28.3 31.2 23.9 77 3.0 E 15 20 8 11 1013.6 1013.6 0.0
21/09:00pm 28.2 31.1 23.8 77 3.0 E 15 19 8 10 1013.5 1013.5 0.0
21/08:30pm 28.1 31.5 24.1 79 2.8 E 13 17 7 9 1013.1 1013.1 0.0
21/08:00pm 28.1 30.5 23.7 77 3.0 E 17 22 9 12 1013.1 1013.1 0.0
21/07:30pm 28.2 30.4 24.0 78 2.9 E 19 24 10 13 1013.0 1013.0 0.0
21/07:00pm 28.1 31.0 23.9 78 2.9 E 15 20 8 11 1012.7 1012.7 0.0
21/06:30pm 28.4 30.7 23.5 75 3.4 E 17 24 9 13 1012.4 1012.4 0.0
21/06:00pm 28.7 31.4 22.9 71 4.0 E 13 19 7 10 1012.1 1012.1 0.0
21/05:30pm 29.5 31.5 23.0 68 4.4 E 17 22 9 12 1011.9 1011.9 0.0
21/05:00pm 29.8 31.7 22.8 66 4.8 ENE 17 22 9 12 1011.8 1011.8 0.0
21/04:30pm 29.9 32.1 23.3 67 4.5 ENE 17 22 9 12 1011.7 1011.7 0.0
21/04:00pm 30.6 32.4 23.5 66 4.9 ENE 20 26 11 14 1011.6 1011.6 0.0
21/03:30pm 29.6 31.4 23.3 69 4.3 E 19 24 10 13 1011.6 1011.6 0.0
21/03:00pm 30.6 32.4 23.5 66 4.9 E 20 26 11 14 1011.8 1011.8 0.0
21/02:30pm 31.0 33.0 24.6 68 4.5 ENE 22 28 12 15 1011.9 1011.9 0.0
21/02:00pm 30.8 32.6 23.5 65 5.0 E 20 28 11 15 1012.1 1012.1 0.0
21/01:30pm 30.6 32.4 23.5 66 4.9 E 20 28 11 15 1012.2 1012.2 0.0
21/01:00pm 30.6 32.9 24.5 70 4.3 E 20 26 11 14 1012.6 1012.6 0.0
21/12:30pm 31.0 34.0 25.6 73 3.8 E 20 24 11 13 1013.0 1013.0 0.0
21/12:00pm 30.4 32.2 23.6 67 4.7 E 20 26 11 14 1013.3 1013.3 0.0
21/11:30am 30.5 33.4 25.1 73 3.8 E 19 24 10 13 1013.5 1013.5 0.0
21/11:00am 30.4 33.9 25.5 75 3.5 E 17 20 9 11 1013.7 1013.7 0.0
21/10:30am 30.2 33.6 24.6 72 3.9 ESE 15 22 8 12 1013.6 1013.6 0.0
21/10:00am 30.3 34.2 24.9 73 3.8 ESE 13 19 7 10 1013.8 1013.8 0.0
21/09:30am 29.6 33.5 24.9 76 3.3 ESE 13 19 7 10 1013.9 1013.9 0.0
21/09:00am 28.8 32.6 24.1 76 3.3 SE 11 17 6 9 1013.9 1013.9 0.2
21/08:30am 28.5 34.0 26.1 87 1.7 S 9 13 5 7 1013.6 1013.6 0.2
21/08:00am 26.8 31.3 24.6 88 1.5 SSW 9 11 5 6 1013.5 1013.5 0.2
21/07:30am 25.5 29.9 24.5 94 0.7 SSW 9 11 5 6 1013.3 1013.3 0.2
21/07:00am 24.4 28.9 23.7 96 0.5 SW 6 7 3 4 1013.0 1013.0 0.2
21/06:30am 23.5 27.6 23.2 98 0.2 SW 7 9 4 5 1012.6 1012.6 0.2
21/06:00am 22.9 26.2 22.6 98 0.2 WSW 9 11 5 6 1012.2 1012.2 0.2
21/05:30am 23.0 26.6 22.3 96 0.5 WSW 7 11 4 6 1012.1 1012.1 0.2
21/05:00am 23.0 26.8 22.7 98 0.2 W 7 9 4 5 1011.9 1011.9 0.2
21/04:30am 23.2 28.3 22.7 97 0.3 CALM 0 0 0 0 1011.5 1011.5 0.2
21/04:00am 23.2 27.0 22.7 97 0.3 W 7 9 4 5 1011.4 1011.4 0.2
21/03:30am 23.2 27.1 22.5 96 0.5 W 6 7 3 4 1011.1 1011.1 0.2
21/03:00am 23.6 27.7 22.9 96 0.5 W 6 7 3 4 1010.9 1010.9 0.2
21/02:30am 23.8 27.8 23.1 96 0.5 W 7 11 4 6 1010.9 1010.9 0.2
21/02:00am 23.9 27.8 23.0 95 0.6 W 7 11 4 6 1010.8 1010.8 0.2
21/01:30am 24.1 27.9 23.4 96 0.5 WSW 9 11 5 6 1011.1 1011.1 0.2
21/01:00am 24.4 28.2 23.5 95 0.6 W 9 13 5 7 1011.2 1011.2 0.2
21/12:30am 24.8 29.1 24.3 97 0.3 N 9 11 5 6 1011.4 1011.4 0.2
21/12:00am 25.2 30.0 24.5 96 0.5 N 7 9 4 5 1011.6 1011.6 0.2
 
Date/Time
EST
Temp
°C
App
Temp
°C
Dew
Point
°C
Rel
Hum
%
Delta-T
°C
Wind Press
QNH
hPa
Press
MSL
hPa
Rain since
9am
mm
Dir  Spd
km/h
Gust
km/h
Spd
kts
Gust
kts
20/11:30pm 25.4 30.3 24.7 96 0.5 N 7 9 4 5 1011.8 1011.8 0.2
20/11:00pm 25.7 30.4 25.0 96 0.5 N 9 11 5 6 1011.9 1011.9 0.2
20/10:30pm 25.7 30.1 24.5 93 0.8 N 9 9 5 5 1011.8 1011.8 0.2
20/10:00pm 26.1 31.0 24.3 90 1.2 N 6 9 3 5 1011.7 1011.7 0.2
20/09:30pm 26.3 30.8 24.0 87 1.6 N 7 9 4 5 1011.3 1011.3 0.2
20/09:00pm 27.0 32.4 23.9 83 2.1 N 2 9 1 5 1011.2 1011.2 0.2
20/08:30pm 27.2 31.8 24.1 83 2.1 N 7 9 4 5 1011.0 1011.0 0.2
20/08:00pm 27.5 31.5 23.7 80 2.6 N 9 11 5 6 1010.6 1010.6 0.2
20/07:30pm 27.7 31.3 23.7 79 2.7 N 11 15 6 8 1010.1 1010.1 0.2
20/07:00pm 28.0 31.4 24.0 79 2.8 NNE 13 19 7 10 1009.9 1009.9 0.2
20/06:30pm 28.2 31.2 24.0 78 2.9 N 15 19 8 10 1009.8 1009.8 0.2
20/06:00pm 28.5 31.3 24.3 78 2.9 NNE 17 24 9 13 1009.5 1009.5 0.2
20/05:30pm 28.6 31.1 24.4 78 2.9 NNE 19 22 10 12 1009.1 1009.1 0.2
20/05:00pm 28.9 32.3 24.7 78 2.9 NE 15 20 8 11 1008.7 1008.7 0.2
20/04:30pm 29.1 33.0 24.9 78 2.9 NE 13 19 7 10 1008.7 1008.7 0.2
20/04:00pm 29.1 31.5 24.2 75 3.4 ENE 19 26 10 14 1008.4 1008.4 0.2
20/03:30pm 30.3 32.8 24.7 72 3.9 ENE 20 28 11 15 1008.1 1008.1 0.2
20/03:00pm 30.2 32.6 24.6 72 3.9 ENE 20 28 11 15 1008.3 1008.3 0.2
20/02:30pm 30.3 32.8 24.4 70 4.1 ENE 19 24 10 13 1008.2 1008.2 0.2
20/02:00pm 30.2 32.5 25.0 73 3.7 ENE 22 28 12 15 1008.4 1008.4 0.2
20/01:30pm 30.2 33.2 25.5 76 3.3 E 20 28 11 15 1008.8 1008.8 0.2
20/01:00pm 30.6 33.8 25.9 76 3.3 E 20 32 11 17 1009.0 1009.0 0.2
20/12:30pm 29.9 32.3 24.3 72 3.9 E 19 28 10 15 1009.6 1009.6 0.2
20/12:00pm 30.2 33.7 25.5 76 3.3 E 17 22 9 12 1010.0 1010.0 0.2
20/11:30am 30.3 34.5 26.0 78 3.1 ESE 15 20 8 11 1010.3 1010.3 0.2
20/11:00am 29.6 33.1 24.2 73 3.8 E 13 20 7 11 1010.5 1010.5 0.2
20/10:30am 29.5 32.7 24.4 74 3.6 ESE 15 19 8 10 1010.6 1010.6 0.2
20/10:00am 29.5 33.7 24.1 72 3.7 SE 9 15 5 8 1010.4 1010.4 0.2
20/09:30am 28.6 31.7 23.5 74 3.5 SE 13 17 7 9 1010.4 1010.4 0.2
20/09:00am 28.7 33.3 24.7 79 2.8 SE 9 11 5 6 1010.4 1010.4 3.6
20/08:30am 27.2 31.8 24.1 83 2.1 S 7 11 4 6 1010.3 1010.3 3.6
20/08:00am 26.1 29.4 23.8 87 1.6 SSW 13 17 7 9 1010.0 1010.0 3.6
20/07:30am 25.7 30.0 23.7 89 1.4 WSW 7 13 4 7 1009.7 1009.7 3.6
20/07:00am 24.4 28.6 23.4 94 0.7 SSE 7 9 4 5 1009.4 1009.4 3.6
20/06:30am 23.4 28.0 23.1 98 0.2 SSW 4 7 2 4 1009.1 1009.1 3.6
20/06:00am 23.1 26.6 22.9 99 0.1 SSW 9 13 5 7 1008.9 1008.9 3.6
20/05:30am 23.3 26.9 23.1 99 0.1 SSW 9 11 5 6 1008.7 1008.7 3.6
20/05:00am 23.2 27.3 22.9 98 0.2 WSW 6 7 3 4 1008.2 1008.2 3.6
20/04:30am 23.4 27.5 23.2 99 0.1 WSW 7 9 4 5 1008.2 1008.2 3.6
20/04:00am 23.4 27.6 23.1 98 0.2 WSW 6 7 3 4 1008.0 1008.0 3.6
20/03:30am 23.4 27.4 23.1 98 0.2 W 7 9 4 5 1007.9 1007.9 3.6
20/03:00am 23.6 27.9 23.3 98 0.2 W 6 7 3 4 1007.6 1007.6 3.6
20/02:30am 23.8 28.0 23.5 98 0.2 W 7 9 4 5 1007.7 1007.7 3.6
20/02:00am 24.0 28.4 23.5 97 0.3 W 6 7 3 4 1008.0 1008.0 3.6
20/01:30am 24.0 29.6 23.5 97 0.3 CALM 0 0 0 0 1008.5 1008.5 3.6
20/01:00am 24.0 28.8 23.5 97 0.3 W 4 7 2 4 1008.8 1008.8 3.6
20/12:30am 24.0 28.3 23.3 96 0.5 W 6 7 3 4 1008.9 1008.9 3.6
20/12:00am 24.0 28.3 23.3 96 0.5 W 6 9 3 5 1009.2 1009.2 3.6
 
Date/Time
EST
Temp
°C
App
Temp
°C
Dew
Point
°C
Rel
Hum
%
Delta-T
°C
Wind Press
QNH
hPa
Press
MSL
hPa
Rain since
9am
mm
Dir  Spd
km/h
Gust
km/h
Spd
kts
Gust
kts
19/11:30pm 24.0 28.1 23.3 96 0.5 WSW 7 11 4 6 1009.5 1009.5 3.6
19/11:00pm 24.2 28.4 23.5 96 0.5 SW 7 9 4 5 1009.4 1009.4 3.6
19/10:30pm 24.1 27.9 23.4 96 0.5 WSW 9 13 5 7 1009.7 1009.7 3.6
19/10:00pm 23.9 27.6 23.2 96 0.5 WSW 9 13 5 7 1009.6 1009.6 3.6
19/09:30pm 24.0 27.4 23.3 96 0.5 NW 11 13 6 7 1009.5 1009.5 3.6
19/09:00pm 24.0 27.8 23.5 97 0.3 NW 9 13 5 7 1009.1 1009.1 3.6
19/08:30pm 24.1 28.0 23.6 97 0.3 W 9 13 5 7 1008.8 1008.8 3.6
19/08:00pm 24.2 27.8 23.7 97 0.3 W 11 13 6 7 1008.8 1008.8 3.6
19/07:30pm 24.2 27.8 23.7 97 0.3 W 11 13 6 7 1008.4 1008.4 3.6
19/07:00pm 24.6 28.6 23.7 95 0.6 NNW 9 13 5 7 1007.8 1007.8 3.4
19/06:30pm 24.0 28.8 22.8 93 0.8 SW 2 7 1 4 1007.4 1007.4 2.8
19/06:13pm 24.1 26.6 22.5 91 1.1 SW 13 20 7 11 1007.6 1007.6 2.2
19/06:00pm 24.4 25.7 22.7 90 1.1 SW 20 26 11 14 1007.8 1007.8 2.2
19/05:51pm 25.0 25.7 22.3 85 1.8 SW 22 30 12 16 1007.7 1007.7 0.8
19/05:30pm 28.5 31.0 22.5 70 4.1 NNE 13 19 7 10 1007.0 1007.0 0.0
19/05:00pm 28.7 31.0 22.7 70 4.1 NNE 15 20 8 11 1006.5 1006.5 0.0
19/04:30pm 28.9 30.2 22.6 69 4.3 NNE 20 26 11 14 1005.9 1005.9 0.0

Other Formats:

Comma delimited format used in spreadsheet applications
http://www.bom.gov.au/fwo/IDQ60801/IDQ60801.95367.axf

JavaScript Object Notation format (JSON) in row-major order
http://www.bom.gov.au/fwo/IDQ60801/IDQ60801.95367.json